Flight Track Log - Related Links

Times and Time Zones

All times are in EDT time to prevent confusion due to time zone crossing. See the ASQ4342 flight status page for this flight to view local times or setup timezone preferences in your user account.

Time Position Orientation Groundspeed Altitude Reporting Facility
EDT Latitude Longitude Course Direction KTS MPH feet Rate Location/Type
Fri 06:53:38 AM 36.8806 -76.2178 247° West 158 182 700  Level Washington Center
Fri 06:54:22 AM 36.8531 -76.2408 214° Southwest 171 197 2,400 1,943 Climbing Washington Center
Fri 06:55:23 AM 36.8278 -76.3028 243° Southwest 234 269 4,100 1,934 Climbing Washington Center
Fri 06:56:23 AM 36.8147 -76.3806 258° West 240 276 6,300 2,727 Climbing Washington Center
Fri 06:56:29 AM 36.8106 -76.3986 254° West 242 278 7,100 2,793 Climbing Washington Center
Fri 06:57:21 AM 36.8039 -76.4531 261° West 245 282 9,000 2,304 Climbing Washington Center
Fri 06:58:00 AM 36.7596 -76.7953 253° West  Level FlightAware Approximate
Fri 06:58:21 AM 36.7886 -76.5358 257° West 245 282 11,400  Level Washington Center
Fri 06:59:00 AM 36.7290 -76.9130 247° West  Level FlightAware Approximate
Fri 06:59:23 AM 36.7753 -76.6267 260° West 253 291 12,700  Level Washington Center
Fri 07:00:20 AM 36.7600 -76.7275 259° West 276 318 13,800 1,311 Climbing Washington Center
Fri 07:01:22 AM 36.7422 -76.8333 258° West 298 343 15,300 1,672 Climbing Washington Center
Fri 07:02:22 AM 36.7264 -76.9394 259° West 312 359 17,200 1,765 Climbing Washington Center
Fri 07:03:21 AM 36.7022 -77.0428 254° West 318 366 18,800 1,563 Climbing Washington Center
Fri 07:04:21 AM 36.6572 -77.1378 239° Southwest 313 360 20,300 1,587 Climbing Washington Center
Fri 07:05:22 AM 36.6122 -77.2300 239° Southwest 313 360 22,000 1,785 Climbing Washington Center
Fri 07:06:22 AM 36.5714 -77.3222 241° Southwest 318 366 23,900 1,650 Climbing Washington Center
Fri 07:07:22 AM 36.5303 -77.4092 240° Southwest 306 352 25,300 1,438 Climbing Washington Center
Fri 07:08:23 AM 36.4872 -77.4986 239° Southwest 306 352 26,800 1,388 Climbing Washington Center
Fri 07:09:23 AM 36.4461 -77.5853 239° Southwest 306 352 28,100 1,311 Climbing Washington Center
Fri 07:10:22 AM 36.4028 -77.6797 240° Southwest 301 346 29,400 1,240 Climbing Washington Center
Fri 07:11:24 AM 36.3639 -77.7664 241° Southwest 296 341 30,600 1,271 Climbing Washington Center
Fri 07:12:20 AM 36.3247 -77.8503 240° Southwest 291 335 31,900 1,077 Climbing Washington Center
Fri 07:13:21 AM 36.2856 -77.9342 240° Southwest 286 329 32,700 738 Climbing Washington Center
Fri 07:14:22 AM 36.2442 -78.0181 239° Southwest 292 336 33,400 600 Climbing Washington Center
Fri 07:15:21 AM 36.2028 -78.1042 239° Southwest 292 336 33,900 303 Climbing Washington Center
Fri 07:16:21 AM 36.1592 -78.1956 239° Southwest 292 336 34,000 50 Climbing Washington Center
Fri 07:17:22 AM 36.1131 -78.2917 239° Southwest 310 357 34,000 202 Level Washington Center
Fri 07:18:20 AM 36.0628 -78.3953 239° Southwest 332 382 34,400 655 Climbing Washington Center
Fri 07:19:21 AM 36.0144 -78.4936 239° Southwest 339 390 35,300 787 Climbing Washington Center
Fri 07:20:22 AM 35.9725 -78.5847 240° Southwest 339 390 36,000 350 Climbing Washington Center
Fri 07:21:21 AM 35.9242 -78.6803 238° Southwest 339 390 36,000  Level Washington Center
Fri 07:22:21 AM 35.8756 -78.7861 240° Southwest 339 390 36,000  Level Washington Center
Fri 07:23:21 AM 35.8453 -78.9000 252° West 349 402 36,000  Level Washington Center
Fri 07:24:22 AM 35.8150 -79.0192 253° West 355 409 36,000  Level Washington Center
Fri 07:26:22 AM 35.7506 -79.2667 252° West 372 428 36,000  Level Atlanta Center
Fri 07:27:22 AM 35.7178 -79.3914 252° West 378 435 36,000  Level Atlanta Center
Fri 07:28:22 AM 35.6869 -79.5158 253° West 383 441 36,000  Level Atlanta Center
Fri 07:29:22 AM 35.6461 -79.6508 250° West 388 447 36,000  Level Atlanta Center
Fri 07:30:22 AM 35.6208 -79.7622 254° West 388 447 36,000  Level Atlanta Center
Fri 07:31:22 AM 35.5878 -79.8917 253° West 388 447 36,000  Level Atlanta Center
Fri 07:32:22 AM 35.5503 -80.0236 251° West 388 447 36,000  Level Atlanta Center
Fri 07:33:22 AM 35.5167 -80.1478 252° West 388 447 36,000  Level Atlanta Center
Fri 07:34:22 AM 35.4853 -80.2717 253° West 388 447 36,000 300 Level Atlanta Center
Fri 07:35:22 AM 35.4514 -80.3956 251° West 388 447 36,600 500 Climbing Atlanta Center
Fri 07:36:22 AM 35.4214 -80.5089 252° West 382 440 37,000 200 Climbing Atlanta Center
Fri 07:37:22 AM 35.3914 -80.6300 253° West 376 433 37,000  Level Atlanta Center
Fri 07:38:22 AM 35.3572 -80.7511 251° West 370 426 37,000  Level Atlanta Center
Fri 07:39:22 AM 35.3247 -80.8694 251° West 370 426 37,000  Level Atlanta Center
Fri 07:40:22 AM 35.2903 -80.9878 250° West 375 432 37,000 -200 Level Atlanta Center
Fri 07:41:22 AM 35.2386 -81.1017 241° Southwest 375 432 36,600 -500 Descending Atlanta Center
Fri 07:42:22 AM 35.1744 -81.2133 235° Southwest 398 458 36,000 -300 Descending Atlanta Center
Fri 07:43:22 AM 35.1103 -81.3247 235° Southwest 404 465 36,000  Level Atlanta Center
Fri 07:44:22 AM 35.0503 -81.4383 237° Southwest 409 471 36,000  Level Atlanta Center
Fri 07:45:22 AM 34.9878 -81.5542 237° Southwest 409 471 36,000  Level Atlanta Center
Fri 07:46:22 AM 34.9211 -81.6625 233° Southwest 409 471 36,000  Level Atlanta Center
Fri 07:47:22 AM 34.8608 -81.7758 237° Southwest 404 465 36,000  Level Atlanta Center
Fri 07:48:22 AM 34.7958 -81.8786 232° Southwest 404 465 36,000  Level Atlanta Center
Fri 07:49:22 AM 34.7328 -81.9839 234° Southwest 398 458 36,000  Level Atlanta Center
Fri 07:50:22 AM 34.6722 -82.0992 237° Southwest 398 458 36,000  Level Atlanta Center
Fri 07:51:22 AM 34.6050 -82.2067 233° Southwest 403 464 36,000  Level Atlanta Center
Fri 07:52:22 AM 34.5439 -82.3164 236° Southwest 403 464 36,000  Level Atlanta Center
Fri 07:53:22 AM 34.4786 -82.4236 234° Southwest 403 464 36,000  Level Atlanta Center
Fri 07:54:22 AM 34.4175 -82.5356 237° Southwest 403 464 36,000  Level Atlanta Center
Fri 07:55:22 AM 34.3517 -82.6297 230° Southwest 408 470 36,000  Level Atlanta Center
Fri 07:56:22 AM 34.2903 -82.7389 236° Southwest 408 470 36,000  Level Atlanta Center
Fri 07:57:22 AM 34.2289 -82.8453 235° Southwest 402 463 36,000  Level Atlanta Center
Fri 07:58:22 AM 34.1650 -82.9542 235° Southwest 402 463 36,000  Level Atlanta Center
Fri 07:59:22 AM 34.1014 -83.0603 234° Southwest 402 463 36,000  Level Atlanta Center
Fri 08:00:22 AM 34.0394 -83.1689 235° Southwest 400 460 36,000  Level Atlanta Center
Fri 08:01:22 AM 33.9694 -83.2850 234° Southwest 400 460 36,000  Level Atlanta Center
Fri 08:02:22 AM 33.9031 -83.3956 234° Southwest 406 467 36,000  Level Atlanta Center
Fri 08:03:22 AM 33.8389 -83.5036 234° Southwest 406 467 36,000  Level Atlanta Center
Fri 08:04:22 AM 33.7767 -83.6089 235° Southwest 406 467 36,000  Level Atlanta Center
Fri 08:05:22 AM 33.7125 -83.7142 234° Southwest 406 467 36,000  Level Atlanta Center
Fri 08:06:22 AM 33.6481 -83.8217 234° Southwest 401 461 36,000  Level Atlanta Center
Fri 08:07:22 AM 33.5856 -83.9267 234° Southwest 401 461 36,000  Level Atlanta Center
Fri 08:08:22 AM 33.5228 -84.0314 234° Southwest 401 461 36,000  Level Atlanta Center
Fri 08:09:22 AM 33.4644 -84.1233 233° Southwest 401 461 36,000  Level Atlanta Center
Fri 08:10:22 AM 33.3997 -84.2281 234° Southwest 396 456 36,000  Level Atlanta Center
Fri 08:11:22 AM 33.3367 -84.3372 235° Southwest 396 456 36,000  Level Atlanta Center
Fri 08:12:22 AM 33.2717 -84.4414 233° Southwest 403 464 36,000  Level Atlanta Center
Fri 08:13:22 AM 33.2025 -84.5553 234° Southwest 398 458 36,000  Level Atlanta Center
Fri 08:14:22 AM 33.1394 -84.6592 234° Southwest 398 458 36,000  Level Atlanta Center
Fri 08:15:22 AM 33.0742 -84.7653 234° Southwest 398 458 36,000  Level Atlanta Center
Fri 08:16:22 AM 33.0108 -84.8686 234° Southwest 398 458 36,000  Level Atlanta Center
Fri 08:17:22 AM 32.9453 -84.9719 233° Southwest 404 465 36,000  Level Atlanta Center
Fri 08:18:22 AM 32.8819 -85.0728 233° Southwest 399 459 36,000  Level Atlanta Center
Fri 08:19:22 AM 32.8122 -85.1633 228° Southwest 393 452 36,000  Level Atlanta Center
Fri 08:20:22 AM 32.7528 -85.2664 236° Southwest 380 437 36,000  Level Atlanta Center
Fri 08:21:22 AM 32.6933 -85.3717 236° Southwest 386 444 36,000  Level Atlanta Center
Fri 08:22:22 AM 32.6297 -85.4694 232° Southwest 386 444 36,000  Level Atlanta Center
Fri 08:23:22 AM 32.5636 -85.5694 232° Southwest 386 444 36,000  Level Atlanta Center
Fri 08:24:22 AM 32.4997 -85.6692 233° Southwest 391 450 36,000  Level Atlanta Center
Fri 08:25:22 AM 32.4336 -85.7714 233° Southwest 391 450 36,000  Level Atlanta Center
Fri 08:26:22 AM 32.3694 -85.8758 234° Southwest 396 456 36,000  Level Atlanta Center
Fri 08:27:22 AM 32.2992 -85.9775 231° Southwest 396 456 36,000  Level Atlanta Center
Fri 08:28:22 AM 32.2392 -86.0744 234° Southwest 390 449 36,000  Level Atlanta Center
Fri 08:29:22 AM 32.1811 -86.1786 237° Southwest 390 449 36,000  Level Atlanta Center
Fri 08:30:22 AM 32.1083 -86.2775 229° Southwest 385 443 36,000  Level Atlanta Center
Fri 08:31:22 AM 32.0608 -86.3547 234° Southwest 390 449 36,000  Level Atlanta Center
Fri 08:32:22 AM 31.9897 -86.4731 235° Southwest 380 437 36,000  Level Atlanta Center
Fri 08:33:22 AM 31.9297 -86.5569 230° Southwest 380 437 36,000  Level Atlanta Center
Fri 08:34:22 AM 31.8650 -86.6553 232° Southwest 385 443 36,000  Level Atlanta Center
Fri 08:35:22 AM 31.8003 -86.7561 233° Southwest 385 443 36,000  Level Atlanta Center
Fri 08:36:22 AM 31.7356 -86.8542 232° Southwest 390 449 36,000  Level Atlanta Center
Fri 08:37:22 AM 31.6706 -86.9547 233° Southwest 390 449 36,000  Level Atlanta Center
Fri 08:38:22 AM 31.6011 -87.0647 233° Southwest 385 443 36,000  Level Atlanta Center
Fri 08:39:22 AM 31.5361 -87.1647 233° Southwest 385 443 36,000  Level Atlanta Center
Fri 08:40:22 AM 31.4667 -87.2647 231° Southwest 385 443 36,000  Level Atlanta Center
Fri 08:41:53 AM 31.3756 -87.3953 231° Southwest 389 448 36,000  Level Houston Center
Fri 08:42:54 AM 31.2958 -87.5144 232° Southwest 389 448 36,000  Level Houston Center
Fri 08:43:56 AM 31.2297 -87.6133 232° Southwest 388 447 36,000  Level Houston Center
Fri 08:44:58 AM 31.1608 -87.7164 232° Southwest 388 447 36,000  Level Houston Center
Fri 08:46:00 AM 31.0950 -87.8144 232° Southwest 387 445 36,000  Level Houston Center
Fri 08:47:02 AM 31.0303 -87.9100 232° Southwest 382 440 36,000  Level Houston Center
Fri 08:48:04 AM 30.9656 -88.0044 231° Southwest 376 433 36,000  Level Houston Center
Fri 08:49:06 AM 30.8756 -88.0828 217° Southwest 402 463 36,000  Level Houston Center
Fri 08:50:08 AM 30.7836 -88.1594 216° Southwest 403 464 36,000  Level Houston Center
Fri 08:51:09 AM 30.6744 -88.2575 218° Southwest 407 468 36,000  Level Houston Center
Fri 08:52:11 AM 30.5847 -88.3361 217° Southwest 407 468 36,000  Level Houston Center
Fri 08:53:13 AM 30.4967 -88.4144 217° Southwest 403 464 36,000  Level Houston Center
Fri 08:54:15 AM 30.4622 -88.5200 249° West 362 417 36,000  Level Houston Center
Fri 08:55:17 AM 30.4369 -88.6314 255° West 355 409 36,000  Level Houston Center
Fri 08:56:18 AM 30.4108 -88.7428 255° West 355 409 36,000  Level Houston Center
Fri 08:57:20 AM 30.3828 -88.8542 254° West 356 410 36,000  Level Houston Center
Fri 08:58:22 AM 30.3522 -88.9842 255° West 356 410 36,000  Level Houston Center
Fri 08:59:24 AM 30.3253 -89.0917 254° West 353 406 36,000  Level Houston Center
Fri 09:00:26 AM 30.2983 -89.2036 254° West 355 409 36,000  Level Houston Center
Fri 09:01:28 AM 30.2719 -89.3147 255° West 357 411 36,000  Level Houston Center
Fri 09:02:29 AM 30.2453 -89.4228 254° West 352 405 36,000  Level Houston Center
Fri 09:03:31 AM 30.2172 -89.5317 253° West 352 405 36,000  Level Houston Center
Fri 09:04:33 AM 30.1894 -89.6417 254° West 352 405 36,000  Level Houston Center
Fri 09:05:35 AM 30.1622 -89.7536 254° West 354 407 36,000  Level Houston Center
Fri 09:06:37 AM 30.1339 -89.8647 254° West 354 407 36,000  Level Houston Center
Fri 09:07:38 AM 30.1011 -89.9983 254° West 357 411 36,000  Level Houston Center
Fri 09:08:40 AM 30.0736 -90.1089 254° West 356 410 36,000  Level Houston Center
Fri 09:09:42 AM 30.0458 -90.2197 254° West 357 411 36,000  Level Houston Center
Fri 09:10:44 AM 30.0183 -90.3306 254° West 358 412 36,000  Level Houston Center
Fri 09:11:46 AM 29.9897 -90.4403 253° West 358 412 36,000  Level Houston Center
Fri 09:12:47 AM 29.9617 -90.5514 254° West 358 412 36,000  Level Houston Center
Fri 09:13:49 AM 29.9339 -90.6622 254° West 358 412 36,000  Level Houston Center
Fri 09:14:51 AM 29.8997 -90.7928 253° West 358 412 36,000  Level Houston Center
Fri 09:15:53 AM 29.8717 -90.8975 253° West 347 399 36,000  Level Houston Center
Fri 09:16:55 AM 29.8450 -91.0000 253° West 337 388 36,000  Level Houston Center
Fri 09:17:57 AM 29.8178 -91.1075 254° West 347 399 36,000  Level Houston Center
Fri 09:18:59 AM 29.7894 -91.2153 253° West 352 405 36,000  Level Houston Center
Fri 09:20:00 AM 29.7617 -91.3214 253° West 351 404 36,000  Level Houston Center
Fri 09:21:02 AM 29.7333 -91.4289 253° West 350 403 36,000  Level Houston Center
Fri 09:22:04 AM 29.6992 -91.5569 253° West 350 403 36,000  Level Houston Center
Fri 09:23:06 AM 29.6711 -91.6650 253° West 351 404 36,000  Level Houston Center
Fri 09:24:07 AM 29.6397 -91.7814 253° West 354 407 36,000  Level Houston Center
Fri 09:25:09 AM 29.6106 -91.8903 253° West 355 409 36,000  Level Houston Center
Fri 09:26:11 AM 29.5814 -91.9989 253° West 355 409 36,000  Level Houston Center
Fri 09:27:13 AM 29.5517 -92.1092 253° West 360 414 36,000 -48 Level Houston Center
Fri 09:28:15 AM 29.5222 -92.2211 253° West 365 420 35,900  Descending Houston Center
Fri 09:29:17 AM 29.4914 -92.3292 252° West 361 415 36,000 48 Climbing Houston Center
Fri 09:30:19 AM 29.4628 -92.4394 253° West 358 412 36,000  Level Houston Center
Fri 09:31:21 AM 29.4622 -92.5758 270° West 357 411 36,000  Level Houston Center
Fri 09:32:23 AM 29.4683 -92.6892 274° West 356 410 36,000  Level Houston Center
Fri 09:33:24 AM 29.4725 -92.8031 272° West 356 410 36,000  Level Houston Center
Fri 09:34:26 AM 29.4783 -92.9175 273° West 357 411 36,000  Level Houston Center
Fri 09:35:28 AM 29.4839 -93.0331 273° West 360 414 36,000 -629 Level Houston Center
Fri 09:36:30 AM 29.4883 -93.1469 273° West 360 414 34,700 -2,129 Descending Houston Center
Fri 09:37:32 AM 29.4942 -93.2883 273° West 368 423 31,600 -2,952 Descending Houston Center
Fri 09:38:34 AM 29.4994 -93.4075 273° West 370 426 28,600 -2,565 Descending Houston Center
Fri 09:39:36 AM 29.5047 -93.5311 273° West 381 438 26,300 -2,064 Descending Houston Center
Fri 09:40:39 AM 29.5089 -93.6517 272° West 381 438 24,300 -1,984 Descending Houston Center
Fri 09:41:40 AM 29.5139 -93.7706 273° West 378 435 22,200 -1,951 Descending Houston Center
Fri 09:42:42 AM 29.5183 -93.8931 272° West 378 435 20,300 -1,839 Descending Houston Center
Fri 09:43:44 AM 29.5228 -94.0106 273° West 372 428 18,400 -2,051 Descending Houston Center
Fri 09:44:01 AM 29.5228 -94.0631 270° West 365 420 17,600 -2,323 Descending Houston Center
Fri 09:44:46 AM 29.5272 -94.1483 273° West 364 419 16,000 -2,129 Descending Houston Center
Fri 09:45:03 AM 29.5261 -94.1803 268° West 352 405 15,400 -1,839 Descending Houston Center
Fri 09:45:48 AM 29.5306 -94.2475 274° West 337 388 14,100 -1,900 Descending Houston Center
Fri 09:46:03 AM 29.5300 -94.2808 269° West 315 362 13,500 -1,065 Descending Houston Center
Fri 09:46:50 AM 29.5369 -94.3472 277° West 321 369 13,000 -441 Descending Houston Center
Fri 09:47:11 AM 29.5511 -94.3886 291° West 315 362 13,000 -290 Level Houston Center
Fri 09:47:52 AM 29.5731 -94.4358 298° West 305 351 12,700 -1,180 Descending Houston Center
Fri 09:48:12 AM 29.5919 -94.4819 295° West 316 364 11,800 -1,452 Descending Houston Center
Fri 09:48:54 AM 29.6106 -94.5239 297° West 312 359 11,200 -1,309 Descending Houston Center
Fri 09:49:07 AM 29.6225 -94.5572 292° West 272 313 10,600 -1,839 Descending Houston Center
Fri 09:49:56 AM 29.6497 -94.6167 298° West 278 320 9,300 -1,770 Descending Houston Center
Fri 09:50:08 AM 29.6550 -94.6325 291° West 261 300 8,800 -1,645 Descending Houston Center
Fri 09:50:58 AM 29.6950 -94.6783 315° West 271 312 7,600 -1,475 Descending Houston Center
Fri 09:51:09 AM 29.7092 -94.6906 323° Northwest 267 307 7,300 -1,583 Descending Houston Center
Fri 09:52:10 AM 29.7706 -94.7406 325° Northwest 270 311 5,700 -1,221 Descending Houston Center
Fri 09:53:02 AM 29.8167 -94.7747 327° Northwest 269 310 5,000 -627 Descending Houston Center
Fri 09:53:17 AM 29.8408 -94.7944 325° Northwest 262 302 5,000  Level Houston Center
Fri 09:54:18 AM 29.9025 -94.8444 325° Northwest 271 312 5,000  Level Houston Center
Fri 09:55:06 AM 29.9481 -94.8822 324° Northwest 266 306 5,000  Level Houston Center
Fri 09:55:19 AM 29.9517 -94.8986 284° West 236 272 5,000  Level Houston Center
Fri 09:56:08 AM 29.9744 -94.9483 298° West 238 274 5,000  Level Houston Center
Fri 09:56:09 AM 29.9758 -94.9533 288° West 232 267 5,000  Level Houston Center
Fri 09:57:10 AM 29.9944 -95.0150 289° West 226 260 5,000 -82 Level Houston Center
Fri 09:57:22 AM 29.9942 -95.0381 269° West 212 244 4,900 -774 Descending Houston Center
Fri 09:58:12 AM 29.9933 -95.0847 269° West 221 254 4,200 -984 Descending Houston Center
Fri 09:58:23 AM 29.9922 -95.1058 267° West 211 243 3,900 -1,065 Descending Houston Center
Fri 09:59:14 AM 29.9931 -95.1494 271° West 212 244 3,100 -1,082 Descending Houston Center
Fri 09:59:24 AM 29.9936 -95.1661 272° West 175 201 2,800 -1,065 Descending Houston Center
Fri 10:00:16 AM 29.9933 -95.2142 270° West 180 207 2,000 -885 Descending Houston Center
Fri 10:00:25 AM 29.9928 -95.2239 266° West 167 192 1,900 -677 Descending Houston Center
Fri 10:01:18 AM 29.9936 -95.2597 272° West 159 183 1,300 -764 Descending Houston Center
Fri 10:01:20 AM 29.9922 -95.2650 253° West 138 159 1,200 -762 Descending Houston Center
Fri 10:02:21 AM 29.9931 -95.3036 271° West 147 169 500 -390 Descending Houston Center
Fri 10:03:23 AM 29.9922 -95.3492 269° West 146 168 400 -97 Descending Houston Center

Login

Don't have an account? Register now (free) for customized features, flight alerts, and more!